createdAt,value
2019-06-15T00:00:13.586Z,21.4
2019-06-15T00:01:14.251Z,21.4
2019-06-15T00:02:14.920Z,21.2
2019-06-15T00:03:15.588Z,21.3
2019-06-15T00:04:16.254Z,21.2
2019-06-15T00:05:16.923Z,21.2
2019-06-15T00:06:17.591Z,21.1
2019-06-15T00:07:18.297Z,21.2
2019-06-15T00:08:18.966Z,21.2
2019-06-15T00:09:19.635Z,21.1
2019-06-15T00:10:20.304Z,21.1
2019-06-15T00:11:20.972Z,21.1
2019-06-15T00:12:21.642Z,21.1
2019-06-15T00:13:22.309Z,21.1
2019-06-15T00:14:22.997Z,21.0
2019-06-15T00:15:23.645Z,21.0
2019-06-15T00:16:24.317Z,21.0
2019-06-15T00:17:24.979Z,21.0
2019-06-15T00:18:25.687Z,21.0
2019-06-15T00:19:26.355Z,20.9
2019-06-15T00:20:27.023Z,21.0
2019-06-15T00:21:27.690Z,20.9
2019-06-15T00:22:28.368Z,21.0
2019-06-15T00:23:29.026Z,20.9
2019-06-15T00:24:35.395Z,20.8
2019-06-15T00:25:31.352Z,20.8
2019-06-15T00:26:32.021Z,20.8
2019-06-15T00:27:32.689Z,20.9
2019-06-15T00:28:33.359Z,20.9
2019-06-15T00:29:34.026Z,20.8
2019-06-15T00:30:34.695Z,20.8
2019-06-15T00:31:35.367Z,20.8
2019-06-15T00:32:36.033Z,20.8
2019-06-15T00:33:36.720Z,20.8
2019-06-15T00:34:37.405Z,20.7
2019-06-15T00:35:38.075Z,20.8
2019-06-15T00:36:38.742Z,20.8
2019-06-15T00:37:39.411Z,20.8
2019-06-15T00:38:40.083Z,20.7
2019-06-15T00:39:40.749Z,20.7
2019-06-15T00:40:41.413Z,20.7
2019-06-15T00:41:42.089Z,20.8
2019-06-15T00:42:42.749Z,20.6
2019-06-15T00:43:43.456Z,20.7
2019-06-15T00:44:44.125Z,20.6
2019-06-15T00:45:44.793Z,20.7
2019-06-15T00:46:45.462Z,20.7
2019-06-15T00:47:46.147Z,20.6
2019-06-15T00:48:46.840Z,20.7
2019-06-15T00:49:47.503Z,20.6
2019-06-15T00:50:48.172Z,20.6
2019-06-15T00:51:48.843Z,20.8
2019-06-15T00:52:49.510Z,20.8
2019-06-15T00:53:50.176Z,20.8
2019-06-15T00:54:50.881Z,20.8
2019-06-15T00:55:51.549Z,20.8
2019-06-15T00:56:52.217Z,20.7
2019-06-15T00:57:52.885Z,20.7
2019-06-15T00:58:53.554Z,20.7
2019-06-15T00:59:54.224Z,20.7
2019-06-15T01:00:54.893Z,20.7
2019-06-15T01:01:55.597Z,20.6
2019-06-15T01:02:56.266Z,20.7
2019-06-15T01:03:56.935Z,20.7
2019-06-15T01:04:57.605Z,20.6
2019-06-15T01:05:58.270Z,20.6
2019-06-15T01:06:58.938Z,20.6
2019-06-15T01:07:59.606Z,20.6
2019-06-15T01:09:00.275Z,20.6
2019-06-15T01:10:00.940Z,20.6
2019-06-15T01:11:01.608Z,20.7
2019-06-15T01:12:02.276Z,20.7
2019-06-15T01:13:02.962Z,20.6
2019-06-15T01:14:03.657Z,20.6
2019-06-15T01:15:04.320Z,20.6
2019-06-15T01:16:04.987Z,20.6
2019-06-15T01:17:05.653Z,20.6
2019-06-15T01:18:06.321Z,20.6
2019-06-15T01:19:06.989Z,20.6
2019-06-15T01:20:07.697Z,20.6
2019-06-15T01:21:08.363Z,20.6
2019-06-15T01:22:09.068Z,20.6
2019-06-15T01:23:09.739Z,20.6
2019-06-15T01:24:10.409Z,20.6
2019-06-15T01:25:11.074Z,20.5
2019-06-15T01:26:11.742Z,20.5
2019-06-15T01:27:12.418Z,20.5
2019-06-15T01:28:13.117Z,20.5
2019-06-15T01:29:13.784Z,20.5
2019-06-15T01:30:14.452Z,20.5
2019-06-15T01:31:15.123Z,20.5
2019-06-15T01:32:15.788Z,20.5
2019-06-15T01:33:16.457Z,20.4
2019-06-15T01:34:17.125Z,20.4
2019-06-15T01:35:17.792Z,20.4
2019-06-15T01:36:18.462Z,20.4
2019-06-15T01:37:19.130Z,20.4
2019-06-15T01:38:19.797Z,20.3
2019-06-15T01:39:20.463Z,20.3
2019-06-15T01:40:21.130Z,20.3
2019-06-15T01:41:21.798Z,20.4
2019-06-15T01:42:22.465Z,20.3
2019-06-15T01:43:23.131Z,20.3
2019-06-15T01:44:23.799Z,20.3
2019-06-15T01:45:24.466Z,20.3
2019-06-15T01:46:25.135Z,20.2
2019-06-15T01:47:25.802Z,20.2
2019-06-15T01:48:26.469Z,20.2
2019-06-15T01:49:27.135Z,20.2
2019-06-15T01:50:27.802Z,20.2
2019-06-15T01:51:28.470Z,20.2
2019-06-15T01:52:29.140Z,20.1
2019-06-15T01:53:29.804Z,20.2
2019-06-15T01:54:30.472Z,20.1
2019-06-15T01:55:31.139Z,20.1
2019-06-15T01:56:31.813Z,20.1
2019-06-15T01:57:32.473Z,20.0
2019-06-15T01:58:33.141Z,20.1
2019-06-15T01:59:33.808Z,20.0
2019-06-15T02:00:34.477Z,20.1
2019-06-15T02:01:35.143Z,20.0
2019-06-15T02:02:35.809Z,20.0
2019-06-15T02:03:36.476Z,20.0
2019-06-15T02:04:37.145Z,20.0
2019-06-15T02:05:37.832Z,20.0
2019-06-15T02:06:38.527Z,20.0
2019-06-15T02:07:39.192Z,20.0
2019-06-15T02:08:39.859Z,20.0
2019-06-15T02:09:40.529Z,20.0
2019-06-15T02:10:41.194Z,20.0
2019-06-15T02:11:41.861Z,20.0
2019-06-15T02:12:42.532Z,20.0
2019-06-15T02:13:43.203Z,19.9
2019-06-15T02:14:43.905Z,20.0
2019-06-15T02:15:44.571Z,20.0
2019-06-15T02:16:45.238Z,19.9
2019-06-15T02:17:45.914Z,19.9
2019-06-15T02:18:46.612Z,19.9
2019-06-15T02:19:47.277Z,19.9
2019-06-15T02:20:47.944Z,19.8
2019-06-15T02:21:48.611Z,19.9
2019-06-15T02:22:49.287Z,19.9
2019-06-15T02:23:49.945Z,19.8
2019-06-15T02:24:50.613Z,19.8
2019-06-15T02:25:51.281Z,19.9
2019-06-15T02:26:51.948Z,19.8
2019-06-15T02:27:52.613Z,19.9
2019-06-15T02:28:53.281Z,19.7
2019-06-15T02:29:53.953Z,19.7
2019-06-15T02:30:54.664Z,19.7
2019-06-15T02:31:55.356Z,19.7
2019-06-15T02:32:56.024Z,19.7
2019-06-15T02:33:56.691Z,19.8
2019-06-15T02:34:57.370Z,19.8
2019-06-15T02:35:58.066Z,19.7
2019-06-15T02:36:58.735Z,19.8
2019-06-15T02:37:59.399Z,19.7
2019-06-15T02:39:00.068Z,19.8
2019-06-15T02:40:00.734Z,19.8
2019-06-15T02:41:01.402Z,19.8
2019-06-15T02:42:02.069Z,19.8
2019-06-15T02:43:02.738Z,19.9
2019-06-15T02:44:03.404Z,19.8
2019-06-15T02:45:04.075Z,19.8
2019-06-15T02:46:04.742Z,19.7
2019-06-15T02:47:05.411Z,19.7
2019-06-15T02:48:06.079Z,19.8
2019-06-15T02:49:06.746Z,19.7
2019-06-15T02:50:07.417Z,19.8
2019-06-15T02:51:08.084Z,19.7
2019-06-15T02:52:08.758Z,19.7
2019-06-15T02:53:09.421Z,19.7
2019-06-15T02:54:10.090Z,19.8
2019-06-15T02:55:10.757Z,19.7
2019-06-15T02:56:11.423Z,19.7
2019-06-15T02:57:12.129Z,19.7
2019-06-15T02:58:12.799Z,19.6
2019-06-15T02:59:13.467Z,19.8
2019-06-15T03:00:14.134Z,19.7
2019-06-15T03:01:14.802Z,19.7
2019-06-15T03:02:15.473Z,19.7
2019-06-15T03:03:16.183Z,19.7
2019-06-15T03:04:16.846Z,19.6
2019-06-15T03:05:17.521Z,19.7
2019-06-15T03:06:18.221Z,19.6
2019-06-15T03:07:18.889Z,19.6
2019-06-15T03:08:19.558Z,19.7
2019-06-15T03:09:20.229Z,19.6
2019-06-15T03:10:20.896Z,19.6
2019-06-15T03:11:21.570Z,19.6
2019-06-15T03:12:22.245Z,19.6
2019-06-15T03:13:22.950Z,19.6
2019-06-15T03:14:23.621Z,19.6
2019-06-15T03:15:24.288Z,19.5
2019-06-15T03:16:24.960Z,19.5
2019-06-15T03:17:25.627Z,19.5
2019-06-15T03:18:26.296Z,19.6
2019-06-15T03:19:26.967Z,19.5
2019-06-15T03:20:27.673Z,19.5
2019-06-15T03:21:28.343Z,19.5
2019-06-15T03:22:29.014Z,19.5
2019-06-15T03:23:29.683Z,19.5
2019-06-15T03:24:30.351Z,19.6
2019-06-15T03:25:31.020Z,19.5
2019-06-15T03:26:31.689Z,19.6
2019-06-15T03:27:32.357Z,19.6
2019-06-15T03:28:33.026Z,19.6
2019-06-15T03:29:33.696Z,19.7
2019-06-15T03:30:34.368Z,19.6
2019-06-15T03:31:35.043Z,19.7
2019-06-15T03:32:35.750Z,19.8
2019-06-15T03:33:36.421Z,19.8
2019-06-15T03:34:37.115Z,19.8
2019-06-15T03:35:37.797Z,19.7
2019-06-15T03:36:38.467Z,19.8
2019-06-15T03:37:39.154Z,19.9
2019-06-15T03:38:39.846Z,19.9
2019-06-15T03:39:40.517Z,19.9
2019-06-15T03:40:41.205Z,19.9
2019-06-15T03:41:41.899Z,20.0
2019-06-15T03:42:42.567Z,20.0
2019-06-15T03:43:43.243Z,20.0
2019-06-15T03:44:43.948Z,20.0
2019-06-15T03:45:44.617Z,20.1
2019-06-15T03:46:45.287Z,20.1
2019-06-15T03:47:45.958Z,20.2
2019-06-15T03:48:46.631Z,20.1
2019-06-15T03:49:47.305Z,20.1
2019-06-15T03:50:48.014Z,20.1
2019-06-15T03:51:48.684Z,20.2
2019-06-15T03:52:49.357Z,20.2
2019-06-15T03:53:50.025Z,20.2
2019-06-15T03:54:50.696Z,20.2
2019-06-15T03:55:51.366Z,20.1
2019-06-15T03:56:52.050Z,20.3
2019-06-15T03:57:52.745Z,20.3
2019-06-15T03:58:53.454Z,20.3
2019-06-15T03:59:54.122Z,20.4
2019-06-15T04:00:54.833Z,20.3
2019-06-15T04:01:55.503Z,20.3
2019-06-15T04:02:56.177Z,20.3
2019-06-15T04:03:56.887Z,20.4
2019-06-15T04:04:57.560Z,20.4
2019-06-15T04:05:58.238Z,20.4
2019-06-15T04:06:58.905Z,20.5
2019-06-15T04:07:59.579Z,20.5
2019-06-15T04:09:00.249Z,20.6
2019-06-15T04:10:00.922Z,20.5
2019-06-15T04:11:01.596Z,20.6
2019-06-15T04:12:02.302Z,20.6
2019-06-15T04:13:02.974Z,20.6
2019-06-15T04:14:03.651Z,20.7
2019-06-15T04:15:04.323Z,20.7
2019-06-15T04:16:04.994Z,20.8
2019-06-15T04:17:05.704Z,20.8
2019-06-15T04:18:06.428Z,20.8
2019-06-15T04:19:07.061Z,20.8
2019-06-15T04:20:07.725Z,20.8
2019-06-15T04:21:08.453Z,20.8
2019-06-15T04:22:09.140Z,20.8
2019-06-15T04:23:09.810Z,20.8
2019-06-15T04:24:10.482Z,20.9
2019-06-15T04:25:11.154Z,20.8
2019-06-15T04:26:11.827Z,21.0
2019-06-15T04:27:12.500Z,21.0
2019-06-15T04:28:13.175Z,21.0
2019-06-15T04:29:13.848Z,20.9
2019-06-15T04:30:14.557Z,21.0
2019-06-15T04:31:15.239Z,21.0
2019-06-15T04:32:15.907Z,21.2
2019-06-15T04:33:16.576Z,21.1
2019-06-15T04:34:17.254Z,21.1
2019-06-15T04:35:17.924Z,21.2
2019-06-15T04:36:18.599Z,21.2
2019-06-15T04:37:19.272Z,21.3
2019-06-15T04:38:19.952Z,21.4
2019-06-15T04:39:20.619Z,21.4
2019-06-15T04:40:21.290Z,21.5
2019-06-15T04:41:22.002Z,21.5
2019-06-15T04:42:22.674Z,21.5
2019-06-15T04:43:23.346Z,21.5
2019-06-15T04:44:24.020Z,21.5
2019-06-15T04:45:24.736Z,21.6
2019-06-15T04:46:25.410Z,21.6
2019-06-15T04:47:26.082Z,21.7
2019-06-15T04:48:26.753Z,21.7
2019-06-15T04:49:27.424Z,21.7
2019-06-15T04:50:28.098Z,21.8
2019-06-15T04:51:28.771Z,21.7
2019-06-15T04:52:29.446Z,21.7
2019-06-15T04:53:30.121Z,21.8
2019-06-15T04:54:30.794Z,21.8
2019-06-15T04:55:31.468Z,21.9
2019-06-15T04:56:32.143Z,21.9
2019-06-15T04:57:32.815Z,21.9
2019-06-15T04:58:33.488Z,21.8
2019-06-15T04:59:34.176Z,21.9
2019-06-15T05:00:34.874Z,21.9
2019-06-15T05:01:35.550Z,21.9
2019-06-15T05:02:36.259Z,21.9
2019-06-15T05:03:36.931Z,21.9
2019-06-15T05:04:37.604Z,21.8
2019-06-15T05:05:38.281Z,21.9
2019-06-15T05:06:38.951Z,21.9
2019-06-15T05:07:39.683Z,21.9
2019-06-15T05:08:40.335Z,21.9
2019-06-15T05:09:41.027Z,21.8
2019-06-15T05:10:41.722Z,21.8
2019-06-15T05:11:42.410Z,21.8
2019-06-15T05:12:43.110Z,21.8
2019-06-15T05:13:43.782Z,21.8
2019-06-15T05:14:44.455Z,21.9
2019-06-15T05:15:45.127Z,21.8
2019-06-15T05:16:45.800Z,21.8
2019-06-15T05:17:46.491Z,21.8
2019-06-15T05:18:47.144Z,21.7
2019-06-15T05:19:47.816Z,21.7
2019-06-15T05:20:48.489Z,21.7
2019-06-15T05:21:49.165Z,21.6
2019-06-15T05:22:49.851Z,21.6
2019-06-15T05:23:50.512Z,21.6
2019-06-15T05:24:51.188Z,21.7
2019-06-15T05:25:51.864Z,21.7
2019-06-15T05:27:05.610Z,21.6
2019-06-15T05:27:53.240Z,21.8
2019-06-15T05:28:53.913Z,21.8
2019-06-15T05:29:56.606Z,21.8
2019-06-15T05:30:56.253Z,22.0
2019-06-15T05:31:56.927Z,22.0
2019-06-15T05:32:57.600Z,21.9
2019-06-15T05:33:58.321Z,22.1
2019-06-15T05:34:58.997Z,22.0
2019-06-15T05:35:59.672Z,22.2
2019-06-15T05:37:00.346Z,22.2
2019-06-15T05:38:01.055Z,22.3
2019-06-15T05:39:01.738Z,22.3
2019-06-15T05:40:02.407Z,22.4
2019-06-15T05:41:03.083Z,22.4
2019-06-15T05:42:03.757Z,22.4
2019-06-15T05:43:04.431Z,22.5
2019-06-15T05:44:05.107Z,22.5
2019-06-15T05:45:05.781Z,22.6
2019-06-15T05:46:06.454Z,22.7
2019-06-15T05:47:07.130Z,22.7
2019-06-15T05:48:07.802Z,22.7
2019-06-15T05:49:08.477Z,22.7
2019-06-15T05:50:09.153Z,22.7
2019-06-15T05:51:09.867Z,22.7
2019-06-15T05:52:10.548Z,22.8
2019-06-15T05:53:11.223Z,22.9
2019-06-15T05:54:11.895Z,22.9
2019-06-15T05:55:12.567Z,22.9
2019-06-15T05:56:13.241Z,22.9
2019-06-15T05:57:21.509Z,22.9
2019-06-15T05:58:15.583Z,22.9
2019-06-15T05:59:16.257Z,22.9
2019-06-15T06:00:16.946Z,22.9
2019-06-15T06:01:17.645Z,23.0
2019-06-15T06:02:21.043Z,22.9
2019-06-15T06:03:19.984Z,22.9
2019-06-15T06:04:20.659Z,22.9
2019-06-15T06:05:21.336Z,22.9
2019-06-15T06:06:22.295Z,22.9
2019-06-15T06:07:22.971Z,23.0
2019-06-15T06:08:23.644Z,23.1
2019-06-15T06:09:24.319Z,23.2
2019-06-15T06:10:24.995Z,23.3
2019-06-15T06:11:25.671Z,23.5
2019-06-15T06:12:26.350Z,23.8
2019-06-15T06:13:27.021Z,23.9
2019-06-15T06:14:27.702Z,24.3
2019-06-15T06:15:28.409Z,24.6
2019-06-15T06:16:29.084Z,25.1
2019-06-15T06:17:29.763Z,25.5
2019-06-15T06:18:30.453Z,26.0
2019-06-15T06:19:31.123Z,26.1
2019-06-15T06:20:31.798Z,26.3
2019-06-15T06:21:32.472Z,26.4
2019-06-15T06:22:33.150Z,26.4
2019-06-15T06:23:33.826Z,26.5
2019-06-15T06:24:34.502Z,26.4
2019-06-15T06:25:35.179Z,26.5
2019-06-15T06:26:35.854Z,26.8
2019-06-15T06:27:37.046Z,26.9
2019-06-15T06:28:37.240Z,27.0
2019-06-15T06:29:37.916Z,27.4
2019-06-15T06:30:38.603Z,27.9
2019-06-15T06:31:39.273Z,28.3
2019-06-15T06:32:39.949Z,28.5
2019-06-15T06:33:40.627Z,28.5
2019-06-15T06:34:41.303Z,29.0
2019-06-15T06:35:41.981Z,29.6
2019-06-15T06:36:42.708Z,30.0
2019-06-15T06:37:43.386Z,30.5
2019-06-15T06:38:44.065Z,30.9
2019-06-15T06:39:44.748Z,31.6
2019-06-15T06:40:45.420Z,32.3
2019-06-15T06:41:46.103Z,32.9
2019-06-15T06:42:46.838Z,33.7
2019-06-15T06:43:47.537Z,34.1
2019-06-15T06:44:48.217Z,34.4
2019-06-15T06:45:48.897Z,34.8
2019-06-15T06:46:49.580Z,35.3
2019-06-15T06:47:50.259Z,35.9
2019-06-15T06:48:50.979Z,36.1
2019-06-15T06:49:51.700Z,36.6
2019-06-15T06:50:52.379Z,36.9
2019-06-15T06:51:53.058Z,37.2
2019-06-15T06:52:53.741Z,37.7
2019-06-15T06:53:54.477Z,38.0
2019-06-15T06:54:55.138Z,38.0
2019-06-15T06:55:55.819Z,38.1
2019-06-15T06:56:56.502Z,38.4
2019-06-15T06:57:57.496Z,38.8
2019-06-15T06:58:58.162Z,39.2
2019-06-15T06:59:58.849Z,39.5
2019-06-15T07:00:59.565Z,39.8
2019-06-15T07:02:00.299Z,40.2
2019-06-15T07:03:00.984Z,40.4
2019-06-15T07:04:01.681Z,40.7
2019-06-15T07:05:02.390Z,41.3
2019-06-15T07:06:03.075Z,41.5
2019-06-15T07:07:03.758Z,41.6
2019-06-15T07:08:04.441Z,41.8
2019-06-15T07:09:05.125Z,41.9
2019-06-15T07:10:05.811Z,41.9
2019-06-15T07:11:06.495Z,42.2
2019-06-15T07:12:07.187Z,42.3
2019-06-15T07:14:09.555Z,43.3
2019-06-15T07:15:10.240Z,43.5
2019-06-15T07:16:10.914Z,43.7
2019-06-15T07:17:11.583Z,44.1
2019-06-15T07:19:28.987Z,44.3
2019-06-15T07:20:29.658Z,43.8
2019-06-15T07:21:30.331Z,43.4
2019-06-15T07:22:31.005Z,42.8
2019-06-15T07:23:32.116Z,42.7
2019-06-15T07:24:32.377Z,42.8
2019-06-15T07:25:33.050Z,42.7
2019-06-15T07:26:33.796Z,42.6
2019-06-15T07:27:34.468Z,41.9
2019-06-15T07:28:35.179Z,41.7
2019-06-15T07:29:35.854Z,41.9
2019-06-15T07:30:36.528Z,42.1
2019-06-15T07:31:37.201Z,41.9
2019-06-15T07:32:37.874Z,41.8
2019-06-15T07:33:38.547Z,41.9
2019-06-15T07:34:39.221Z,41.9
2019-06-15T07:36:56.632Z,42.1
2019-06-15T07:39:13.865Z,42.0
2019-06-15T07:40:14.536Z,41.6
2019-06-15T07:41:15.252Z,41.1
2019-06-15T08:03:35.794Z,38.8
2019-06-15T08:04:36.465Z,39.1
2019-06-15T08:05:37.138Z,39.4
2019-06-15T08:06:37.808Z,39.2
2019-06-15T08:07:38.481Z,39.4
2019-06-15T08:08:39.189Z,39.3
2019-06-15T08:09:39.909Z,39.3
2019-06-15T08:10:40.579Z,39.4
2019-06-15T08:11:41.250Z,39.2
2019-06-15T08:12:41.928Z,39.7
2019-06-15T08:13:42.597Z,39.7
2019-06-15T08:14:43.265Z,40.0
2019-06-15T08:15:43.932Z,40.4
2019-06-15T08:16:44.599Z,41.0
2019-06-15T08:17:45.793Z,41.7
2019-06-15T08:18:46.469Z,42.1
2019-06-15T08:19:47.155Z,41.9
2019-06-15T08:20:47.849Z,41.6
2019-06-15T08:21:48.521Z,41.5
2019-06-15T08:22:49.192Z,41.7
2019-06-15T08:23:49.865Z,41.2
2019-06-15T08:24:50.572Z,41.4
2019-06-15T08:25:51.242Z,41.5
2019-06-15T08:26:51.968Z,41.2
2019-06-15T08:27:52.679Z,41.2
2019-06-15T08:28:53.346Z,40.6
2019-06-15T08:29:54.020Z,40.2
2019-06-15T08:30:54.691Z,39.5
2019-06-15T08:31:55.435Z,38.6
2019-06-15T08:32:56.111Z,38.5
2019-06-15T08:33:56.784Z,38.4
2019-06-15T08:34:57.474Z,38.4
2019-06-15T08:35:58.170Z,38.4
2019-06-15T08:36:58.891Z,38.2
2019-06-15T08:37:59.562Z,38.2
2019-06-15T08:39:00.234Z,37.8
2019-06-15T08:40:00.904Z,37.6
2019-06-15T08:41:01.601Z,37.7
2019-06-15T08:42:02.280Z,37.8
2019-06-15T08:43:02.951Z,37.6
2019-06-15T08:44:03.660Z,37.7
2019-06-15T08:45:04.333Z,38.1
2019-06-15T08:46:05.010Z,38.6
2019-06-15T08:47:05.721Z,39.2
2019-06-15T08:48:06.388Z,39.7
2019-06-15T08:49:07.109Z,39.3
2019-06-15T08:50:07.761Z,39.3
2019-06-15T08:51:08.432Z,39.5
2019-06-15T08:52:09.156Z,39.4
2019-06-15T08:53:09.863Z,38.9
2019-06-15T08:54:10.553Z,38.3
2019-06-15T08:55:11.244Z,37.7
2019-06-15T08:56:11.916Z,37.1
2019-06-15T08:57:12.585Z,36.6
2019-06-15T08:58:13.255Z,35.9
2019-06-15T08:59:13.930Z,35.4
2019-06-15T09:00:14.598Z,34.8
2019-06-15T09:01:15.270Z,34.8
2019-06-15T09:02:15.948Z,34.6
2019-06-15T09:03:16.725Z,34.7
2019-06-15T09:04:17.355Z,34.7
2019-06-15T09:05:18.027Z,34.6
2019-06-15T09:06:18.700Z,34.1
2019-06-15T09:07:19.412Z,34.1
2019-06-15T09:08:20.130Z,34.1
2019-06-15T09:09:20.838Z,34.6
2019-06-15T09:10:21.509Z,34.3
2019-06-15T09:11:22.180Z,34.0
2019-06-15T09:12:25.014Z,33.7
2019-06-15T09:13:24.516Z,33.1
2019-06-15T09:14:25.185Z,33.1
2019-06-15T09:15:25.861Z,33.3
2019-06-15T09:16:26.533Z,33.0
2019-06-15T09:17:27.206Z,32.9
2019-06-15T09:18:27.877Z,32.8
2019-06-15T09:19:28.546Z,32.7
2019-06-15T09:20:29.217Z,32.6
2019-06-15T09:21:29.888Z,32.6
2019-06-15T09:22:30.635Z,32.4
2019-06-15T09:23:31.306Z,32.2
2019-06-15T09:24:31.975Z,31.8
2019-06-15T09:25:32.650Z,31.5
2019-06-15T09:26:33.355Z,31.3
2019-06-15T09:27:34.025Z,31.2
2019-06-15T09:28:34.707Z,30.9
2019-06-15T09:29:35.404Z,30.8
2019-06-15T09:30:36.074Z,30.7
2019-06-15T09:31:36.743Z,30.6
2019-06-15T09:32:37.413Z,30.5
2019-06-15T09:33:38.089Z,30.2
2019-06-15T09:34:38.792Z,30.1
2019-06-15T09:35:39.511Z,30.1
2019-06-15T09:36:40.179Z,30.2
2019-06-15T09:37:40.850Z,30.1
2019-06-15T09:38:41.521Z,30.1
2019-06-15T09:39:42.245Z,30.3
2019-06-15T09:40:42.913Z,30.2
2019-06-15T09:42:11.263Z,30.4
2019-06-15T09:43:11.933Z,30.8
2019-06-15T09:44:12.602Z,31.0
2019-06-15T09:45:13.273Z,30.9
2019-06-15T09:46:13.942Z,30.7
2019-06-15T09:47:14.612Z,30.8
2019-06-15T09:48:32.980Z,30.8
2019-06-15T09:49:33.687Z,30.9
2019-06-15T09:50:34.361Z,30.9
2019-06-15T09:51:35.035Z,30.9
2019-06-15T09:52:35.698Z,31.2
2019-06-15T09:53:36.373Z,31.3
2019-06-15T09:54:37.044Z,31.2
2019-06-15T09:55:37.746Z,31.5
2019-06-15T09:56:38.460Z,31.4
2019-06-15T09:57:39.080Z,31.6
2019-06-15T09:58:39.752Z,31.5
2019-06-15T09:59:40.425Z,31.9
2019-06-15T10:00:41.094Z,32.1
2019-06-15T10:01:41.760Z,32.4
2019-06-15T10:02:42.430Z,32.6
2019-06-15T10:03:43.101Z,32.5
2019-06-15T10:04:43.775Z,32.6
2019-06-15T10:05:44.448Z,33.0
2019-06-15T10:06:45.151Z,33.0
2019-06-15T10:07:45.820Z,33.3
2019-06-15T10:08:46.490Z,33.4
2019-06-15T10:09:47.160Z,33.8
2019-06-15T10:10:47.830Z,33.7
2019-06-15T10:17:07.544Z,34.6
2019-06-15T10:18:08.250Z,34.5
2019-06-15T10:19:08.920Z,34.2
2019-06-15T10:20:09.598Z,34.1
2019-06-15T10:21:10.261Z,34.0
2019-06-15T10:22:10.974Z,33.7
2019-06-15T10:23:11.637Z,33.8
2019-06-15T10:24:12.324Z,33.8
2019-06-15T10:25:13.014Z,33.9
2019-06-15T10:26:13.684Z,33.7
2019-06-15T10:28:30.679Z,33.2
2019-06-15T10:29:41.588Z,32.9
2019-06-15T10:30:33.048Z,32.7
2019-06-15T10:31:33.742Z,32.3
2019-06-15T10:32:34.387Z,32.1
2019-06-15T10:33:35.088Z,32.0
2019-06-15T10:34:51.427Z,31.7
2019-06-15T10:35:52.099Z,31.3
2019-06-15T10:36:52.776Z,31.2
2019-06-15T10:37:53.458Z,31.1
2019-06-15T10:38:54.144Z,31.0
2019-06-15T10:39:54.819Z,31.0
2019-06-15T10:40:55.499Z,31.1
2019-06-15T10:44:05.599Z,30.9
2019-06-15T10:45:06.263Z,30.8
2019-06-15T10:46:06.934Z,30.8
2019-06-15T10:47:07.609Z,30.7
2019-06-15T10:48:08.274Z,30.6
2019-06-15T10:49:08.979Z,30.7
2019-06-15T10:50:09.649Z,30.5
2019-06-15T10:51:10.319Z,30.5
2019-06-15T10:52:10.984Z,30.4
2019-06-15T10:53:11.652Z,30.3
2019-06-15T10:54:12.324Z,30.1
2019-06-15T10:55:12.991Z,30.0
2019-06-15T10:56:13.659Z,30.0
2019-06-15T10:57:14.329Z,30.1
2019-06-15T10:58:14.995Z,30.0
2019-06-15T10:59:15.664Z,30.0
2019-06-15T11:00:16.427Z,29.9
2019-06-15T11:01:17.129Z,29.9
2019-06-15T11:02:17.798Z,29.7
2019-06-15T11:03:18.506Z,29.8
2019-06-15T11:04:19.223Z,29.6
2019-06-15T11:05:19.887Z,29.5
2019-06-15T11:06:20.551Z,29.5
2019-06-15T11:07:21.222Z,29.4
2019-06-15T11:08:21.887Z,29.4
2019-06-15T11:09:22.554Z,29.4
2019-06-15T11:10:23.223Z,29.6
2019-06-15T11:11:23.891Z,29.7
2019-06-15T11:12:24.569Z,29.8
2019-06-15T11:13:25.279Z,29.7
2019-06-15T11:14:26.010Z,29.7
2019-06-15T11:15:26.678Z,29.7
2019-06-15T11:16:27.347Z,29.8
2019-06-15T11:17:28.054Z,29.6
2019-06-15T11:18:28.719Z,29.5
2019-06-15T11:19:29.437Z,29.4
2019-06-15T11:20:30.104Z,29.5
2019-06-15T11:21:30.775Z,29.7
2019-06-15T11:22:31.441Z,29.8
2019-06-15T11:23:32.110Z,29.9
2019-06-15T11:24:32.817Z,29.9
2019-06-15T11:25:33.485Z,30.0
2019-06-15T11:26:34.154Z,30.0
2019-06-15T11:27:34.859Z,30.1
2019-06-15T11:28:35.526Z,30.2
2019-06-15T11:29:36.195Z,30.1
2019-06-15T11:30:36.864Z,30.1
2019-06-15T11:31:37.530Z,30.0
2019-06-15T11:32:38.203Z,30.1
2019-06-15T11:33:38.871Z,30.1
2019-06-15T11:34:39.533Z,30.2
2019-06-15T11:35:40.202Z,30.0
2019-06-15T11:36:40.877Z,30.1
2019-06-15T11:37:41.579Z,30.0
2019-06-15T11:38:42.247Z,30.2
2019-06-15T11:39:42.920Z,30.1
2019-06-15T11:40:43.586Z,29.9
2019-06-15T11:41:44.252Z,29.8
2019-06-15T11:42:44.921Z,29.8
2019-06-15T11:43:45.595Z,29.5
2019-06-15T11:44:46.258Z,29.6
2019-06-15T11:45:46.930Z,29.5
2019-06-15T11:46:47.633Z,29.6
2019-06-15T11:47:48.301Z,29.5
2019-06-15T11:48:48.970Z,29.7
2019-06-15T11:49:49.641Z,29.9
2019-06-15T11:50:50.316Z,30.1
2019-06-15T11:51:50.980Z,30.2
2019-06-15T11:52:51.654Z,30.3
2019-06-15T11:53:52.355Z,30.4
2019-06-15T11:54:53.061Z,30.4
2019-06-15T11:55:53.731Z,30.5
2019-06-15T11:56:54.404Z,30.5
2019-06-15T11:57:55.109Z,30.5
2019-06-15T11:58:55.778Z,30.5
2019-06-15T11:59:56.443Z,30.5
2019-06-15T12:00:57.112Z,30.3
2019-06-15T12:01:57.782Z,30.2
2019-06-15T12:02:58.464Z,30.1
2019-06-15T12:03:59.125Z,30.1
2019-06-15T12:04:59.784Z,30.1
2019-06-15T12:06:00.452Z,30.0
2019-06-15T12:07:01.122Z,30.0
2019-06-15T12:08:01.833Z,29.9
2019-06-15T12:09:02.503Z,29.7
2019-06-15T12:10:03.274Z,29.6
2019-06-15T12:11:03.937Z,29.4
2019-06-15T12:12:04.616Z,29.3
2019-06-15T12:13:05.271Z,29.2
2019-06-15T12:14:05.962Z,29.2
2019-06-15T12:15:06.649Z,29.1
2019-06-15T12:16:07.317Z,29.1
2019-06-15T12:17:08.035Z,29.2
2019-06-15T12:18:08.704Z,29.3
2019-06-15T12:19:09.338Z,29.4
2019-06-15T12:20:10.034Z,29.3
2019-06-15T12:21:10.721Z,29.2
2019-06-15T12:22:11.382Z,29.0
2019-06-15T12:23:12.053Z,28.9
2019-06-15T12:24:12.716Z,29.0
2019-06-15T12:25:13.386Z,28.9
2019-06-15T12:26:14.055Z,29.0
2019-06-15T12:27:14.722Z,29.0
2019-06-15T12:28:15.396Z,29.0
2019-06-15T12:29:16.057Z,29.1
2019-06-15T12:30:16.728Z,29.2
2019-06-15T12:31:17.394Z,29.1
2019-06-15T12:32:18.060Z,29.2
2019-06-15T12:33:18.730Z,29.0
2019-06-15T12:34:21.186Z,29.0
2019-06-15T12:35:21.062Z,28.8
2019-06-15T12:36:21.729Z,28.9
2019-06-15T12:37:22.398Z,28.8
2019-06-15T12:38:23.103Z,28.8
2019-06-15T12:39:23.770Z,28.8
2019-06-15T12:40:24.439Z,28.8
2019-06-15T12:41:25.106Z,28.7
2019-06-15T12:42:25.799Z,28.7
2019-06-15T12:43:26.477Z,28.8
2019-06-15T12:44:27.145Z,28.8
2019-06-15T12:45:27.812Z,28.8
2019-06-15T12:46:28.481Z,28.8
2019-06-15T12:47:29.152Z,28.9
2019-06-15T12:48:29.855Z,29.0
2019-06-15T12:49:30.562Z,29.0
2019-06-15T12:50:31.225Z,29.1
2019-06-15T12:51:31.895Z,29.1
2019-06-15T12:52:32.561Z,29.2
2019-06-15T12:53:33.229Z,29.2
2019-06-15T12:54:33.939Z,29.3
2019-06-15T12:55:34.600Z,29.3
2019-06-15T12:56:35.267Z,29.3
2019-06-15T12:57:35.974Z,29.2
2019-06-15T12:58:36.643Z,29.2
2019-06-15T12:59:37.360Z,29.2
2019-06-15T13:00:38.070Z,29.2
2019-06-15T13:01:38.779Z,29.4
2019-06-15T13:02:39.438Z,29.5
2019-06-15T13:03:40.107Z,29.4
2019-06-15T13:04:40.776Z,29.4
2019-06-15T13:05:41.443Z,29.5
2019-06-15T13:06:42.110Z,29.6
2019-06-15T13:07:42.778Z,29.6
2019-06-15T13:08:43.447Z,29.8
2019-06-15T13:09:44.114Z,29.8
2019-06-15T13:10:44.783Z,29.8
2019-06-15T13:11:45.453Z,29.9
2019-06-15T13:12:46.171Z,29.9
2019-06-15T13:13:46.825Z,29.9
2019-06-15T13:14:47.490Z,29.8
2019-06-15T13:15:48.158Z,29.9
2019-06-15T13:16:48.830Z,29.8
2019-06-15T13:17:49.496Z,29.9
2019-06-15T13:18:50.163Z,30.0
2019-06-15T13:19:50.831Z,30.1
2019-06-15T13:20:51.502Z,30.3
2019-06-15T13:21:52.208Z,30.1
2019-06-15T13:22:52.915Z,29.9
2019-06-15T13:23:53.587Z,29.9
2019-06-15T13:24:54.289Z,30.0
2019-06-15T13:25:54.995Z,29.9
2019-06-15T13:26:55.663Z,29.9
2019-06-15T13:27:56.369Z,29.8
2019-06-15T13:28:57.037Z,29.8
2019-06-15T13:29:57.705Z,29.8
2019-06-15T13:30:58.379Z,29.7
2019-06-15T13:31:59.041Z,29.7
2019-06-15T13:32:59.710Z,29.3
2019-06-15T13:34:00.379Z,29.3
2019-06-15T13:35:01.048Z,29.4
2019-06-15T13:36:01.719Z,29.3
2019-06-15T13:37:02.384Z,29.3
2019-06-15T13:38:03.093Z,29.3
2019-06-15T13:39:03.759Z,29.3
2019-06-15T13:40:04.429Z,29.2
2019-06-15T13:41:05.134Z,29.2
2019-06-15T13:42:05.816Z,29.2
2019-06-15T13:43:06.495Z,29.0
2019-06-15T13:44:07.160Z,28.8
2019-06-15T13:45:07.841Z,28.7
2019-06-15T13:46:08.537Z,28.7
2019-06-15T13:47:09.203Z,28.6
2019-06-15T13:48:11.745Z,28.6
2019-06-15T13:49:11.530Z,28.7
2019-06-15T13:50:12.196Z,28.7
2019-06-15T13:51:12.865Z,28.7
2019-06-15T13:52:13.532Z,28.8
2019-06-15T13:53:14.198Z,28.9
2019-06-15T13:54:14.866Z,29.0
2019-06-15T13:55:15.534Z,29.1
2019-06-15T13:56:16.205Z,29.1
2019-06-15T13:57:16.909Z,29.0
2019-06-15T13:58:17.575Z,29.1
2019-06-15T13:59:18.241Z,29.2
2019-06-15T14:00:18.946Z,29.3
2019-06-15T14:01:33.202Z,29.2
2019-06-15T14:02:20.311Z,29.2
2019-06-15T14:03:20.978Z,29.3